createdAt,value
2023-05-13T00:01:04.822Z,13.10
2023-05-13T00:03:33.666Z,13.77
2023-05-13T00:06:02.439Z,13.27
2023-05-13T00:08:32.318Z,12.15
2023-05-13T00:11:00.644Z,14.07
2023-05-13T00:13:28.965Z,13.38
2023-05-13T00:15:57.289Z,13.00
2023-05-13T00:18:25.919Z,16.35
2023-05-13T00:20:54.281Z,13.35
2023-05-13T00:23:22.626Z,12.45
2023-05-13T00:25:52.346Z,11.35
2023-05-13T00:28:21.187Z,16.20
2023-05-13T00:30:49.602Z,13.43
2023-05-13T00:33:17.968Z,12.68
2023-05-13T00:35:46.311Z,13.38
2023-05-13T00:38:14.642Z,15.35
2023-05-13T00:40:44.696Z,11.15
2023-05-13T00:43:14.378Z,13.38
2023-05-13T00:45:42.842Z,16.35
2023-05-13T00:48:11.770Z,14.68
2023-05-13T00:50:42.276Z,14.35
2023-05-13T00:53:10.625Z,13.30
2023-05-13T00:55:44.077Z,10.93
2023-05-13T00:58:15.258Z,15.15
2023-05-13T01:00:52.096Z,11.43
2023-05-13T01:03:28.213Z,11.40
2023-05-13T01:06:04.035Z,12.70
2023-05-13T01:08:42.751Z,15.93
2023-05-13T01:11:16.044Z,12.55
2023-05-13T01:13:50.342Z,13.57
2023-05-13T01:16:23.214Z,13.30
2023-05-13T01:18:55.931Z,14.15
2023-05-13T01:21:27.499Z,10.98
2023-05-13T01:23:56.557Z,13.93
2023-05-13T01:26:26.731Z,12.30
2023-05-13T01:28:55.273Z,12.15
2023-05-13T01:31:24.296Z,12.75
2023-05-13T01:33:53.196Z,12.77
2023-05-13T01:36:22.022Z,14.38
2023-05-13T01:38:53.412Z,12.02
2023-05-13T01:41:22.041Z,11.40
2023-05-13T01:43:50.605Z,10.90
2023-05-13T01:46:19.785Z,13.23
2023-05-13T01:48:48.342Z,14.32
2023-05-13T01:51:16.812Z,10.90
2023-05-13T01:53:45.177Z,12.70
2023-05-13T01:56:14.875Z,17.23
2023-05-13T01:58:43.248Z,11.05
2023-05-13T02:01:11.589Z,12.95
2023-05-13T02:03:40.251Z,12.43
2023-05-13T02:06:09.114Z,12.40
2023-05-13T02:08:37.431Z,16.00
2023-05-13T02:11:06.066Z,12.85
2023-05-13T02:13:35.790Z,10.85
2023-05-13T02:16:04.337Z,12.05
2023-05-13T02:18:32.733Z,12.68
2023-05-13T02:21:01.089Z,13.38
2023-05-13T02:23:29.783Z,13.60
2023-05-13T02:25:58.112Z,13.63
2023-05-13T02:28:26.398Z,14.93
2023-05-13T02:30:56.173Z,12.57
2023-05-13T02:33:24.678Z,13.82
2023-05-13T02:35:52.992Z,11.13
2023-05-13T02:38:21.407Z,12.00
2023-05-13T02:40:49.717Z,15.27
2023-05-13T02:43:18.061Z,14.25
2023-05-13T02:45:48.887Z,13.98
2023-05-13T02:48:18.631Z,14.85
2023-05-13T02:50:47.155Z,13.40
2023-05-13T02:53:15.462Z,12.40
2023-05-13T02:55:43.752Z,13.20
2023-05-13T02:58:12.190Z,12.98
2023-05-13T03:00:40.685Z,14.52
2023-05-13T03:03:09.594Z,15.65
2023-05-13T03:05:39.334Z,14.27
2023-05-13T03:08:07.708Z,13.32
2023-05-13T03:10:36.091Z,13.77
2023-05-13T03:13:04.405Z,14.27
2023-05-13T03:15:32.816Z,12.95
2023-05-13T03:18:01.122Z,15.20
2023-05-13T03:20:29.472Z,12.25
2023-05-13T03:22:59.138Z,12.63
2023-05-13T03:25:27.433Z,13.68
2023-05-13T03:27:55.813Z,17.70
2023-05-13T03:30:24.104Z,13.65
2023-05-13T03:32:52.570Z,14.00
2023-05-13T03:35:20.987Z,12.20
2023-05-13T03:37:49.329Z,13.40
2023-05-13T03:40:19.108Z,13.07
2023-05-13T03:42:47.550Z,12.63
2023-05-13T03:45:15.887Z,14.25
2023-05-13T03:47:44.327Z,14.68
2023-05-13T03:50:12.650Z,12.65
2023-05-13T03:52:40.952Z,15.98
2023-05-13T03:55:10.133Z,18.63
2023-05-13T03:57:39.817Z,12.80
2023-05-13T04:00:10.046Z,14.77
2023-05-13T04:02:38.698Z,15.15
2023-05-13T04:05:07.544Z,12.80
2023-05-13T04:07:36.055Z,12.63
2023-05-13T04:10:04.663Z,14.13
2023-05-13T04:12:33.401Z,13.35
2023-05-13T04:15:03.357Z,13.63
2023-05-13T04:17:31.805Z,14.80
2023-05-13T04:20:00.213Z,15.10
2023-05-13T04:22:28.528Z,10.95
2023-05-13T04:24:57.174Z,12.90
2023-05-13T04:27:25.687Z,12.18
2023-05-13T04:29:54.022Z,14.82
2023-05-13T04:32:23.861Z,12.10
2023-05-13T04:34:53.479Z,12.82
2023-05-13T04:37:21.958Z,11.70
2023-05-13T04:39:50.308Z,14.50
2023-05-13T04:42:18.632Z,12.43
2023-05-13T04:44:46.988Z,14.05
2023-05-13T04:47:15.292Z,12.90
2023-05-13T04:49:44.940Z,14.20
2023-05-13T04:52:13.614Z,16.80
2023-05-13T04:54:42.577Z,14.57
2023-05-13T04:57:10.938Z,13.93
2023-05-13T04:59:39.289Z,14.05
2023-05-13T05:02:07.705Z,13.85
2023-05-13T05:04:36.416Z,18.92
2023-05-13T05:07:06.456Z,13.40
2023-05-13T05:09:34.800Z,13.20
2023-05-13T05:12:03.159Z,12.73
2023-05-13T05:14:31.795Z,15.32
2023-05-13T05:17:00.127Z,14.15
2023-05-13T05:19:28.821Z,12.93
2023-05-13T05:21:57.189Z,14.57
2023-05-13T05:24:27.068Z,12.88
2023-05-13T05:26:56.645Z,13.25
2023-05-13T05:29:25.071Z,15.77
2023-05-13T05:31:53.500Z,14.82
2023-05-13T05:34:21.943Z,11.05
2023-05-13T05:36:50.251Z,14.48
2023-05-13T05:39:18.556Z,10.95
2023-05-13T05:41:48.246Z,16.63
2023-05-13T05:44:16.566Z,13.27
2023-05-13T05:46:44.850Z,11.80
2023-05-13T05:49:13.201Z,13.20
2023-05-13T05:51:41.537Z,11.85
2023-05-13T05:54:09.852Z,12.25
2023-05-13T05:56:38.127Z,12.80
2023-05-13T05:59:07.848Z,12.88
2023-05-13T06:01:36.960Z,12.10
2023-05-13T06:04:06.753Z,12.75
2023-05-13T06:06:35.693Z,11.18
2023-05-13T06:09:04.068Z,15.45
2023-05-13T06:11:32.456Z,14.45
2023-05-13T06:14:01.258Z,11.25
2023-05-13T06:16:31.528Z,14.30
2023-05-13T06:18:59.919Z,11.30
2023-05-13T06:21:28.288Z,11.50
2023-05-13T06:23:56.582Z,11.13
2023-05-13T06:26:25.997Z,12.07
2023-05-13T06:28:54.306Z,14.93
2023-05-13T06:31:22.661Z,13.32
2023-05-13T06:33:52.552Z,10.60
2023-05-13T06:36:21.218Z,12.60
2023-05-13T06:38:49.516Z,10.73
2023-05-13T06:41:17.829Z,9.98
2023-05-13T06:43:46.538Z,10.75
2023-05-13T06:46:15.090Z,11.82
2023-05-13T06:48:43.493Z,11.65
2023-05-13T06:51:13.137Z,12.15
2023-05-13T06:53:41.437Z,10.32
2023-05-13T06:56:09.716Z,11.25
2023-05-13T06:58:38.141Z,10.88
2023-05-13T07:01:07.224Z,11.82
2023-05-13T07:03:36.328Z,9.93
2023-05-13T07:06:05.048Z,12.50
2023-05-13T07:08:34.803Z,10.93
2023-05-13T07:11:03.233Z,15.10
2023-05-13T07:13:33.534Z,13.18
2023-05-13T07:16:02.262Z,10.98
2023-05-13T07:18:30.837Z,9.15
2023-05-13T07:20:59.594Z,9.80
2023-05-13T07:23:28.216Z,10.98
2023-05-13T07:25:58.039Z,9.75
2023-05-13T07:28:26.362Z,10.30
2023-05-13T07:30:54.815Z,9.15
2023-05-13T07:33:23.281Z,12.10
2023-05-13T07:35:51.580Z,13.65
2023-05-13T07:38:19.994Z,11.45
2023-05-13T07:40:48.433Z,11.50
2023-05-13T07:43:23.680Z,10.77
2023-05-13T07:45:52.205Z,12.95
2023-05-13T07:48:20.538Z,12.25
2023-05-13T07:50:48.861Z,9.82
2023-05-13T07:53:19.676Z,12.52
2023-05-13T07:55:48.298Z,16.88
2023-05-13T07:58:18.604Z,15.77
2023-05-13T08:00:47.067Z,21.25
2023-05-13T08:03:15.990Z,11.00
2023-05-13T08:05:44.374Z,19.30
2023-05-13T08:08:12.788Z,10.25
2023-05-13T08:10:41.166Z,11.48
2023-05-13T08:13:09.472Z,10.88
2023-05-13T08:15:39.140Z,13.82
2023-05-13T08:18:07.501Z,14.35
2023-05-13T08:20:36.028Z,10.20
2023-05-13T08:23:04.569Z,13.63
2023-05-13T08:25:32.863Z,12.48
2023-05-13T08:28:01.233Z,10.85
2023-05-13T08:30:29.603Z,22.95
2023-05-13T08:32:59.319Z,20.90
2023-05-13T08:35:27.687Z,18.10
2023-05-13T08:37:56.176Z,11.43
2023-05-13T08:40:24.536Z,16.00
2023-05-13T08:42:56.841Z,12.10
2023-05-13T08:45:29.744Z,20.88
2023-05-13T08:48:02.121Z,9.52
2023-05-13T08:50:31.530Z,11.32
2023-05-13T08:53:00.399Z,12.43
2023-05-13T08:55:29.353Z,10.80
2023-05-13T08:57:57.733Z,10.82
2023-05-13T09:00:26.352Z,14.20
2023-05-13T09:02:54.786Z,12.00
2023-05-13T09:05:25.625Z,10.18
2023-05-13T09:07:55.094Z,11.45
2023-05-13T09:10:23.581Z,17.00
2023-05-13T09:12:53.978Z,13.45
2023-05-13T09:15:23.864Z,9.48
2023-05-13T09:17:54.952Z,9.23
2023-05-13T09:20:25.934Z,10.15
2023-05-13T09:22:56.985Z,11.35
2023-05-13T09:25:26.335Z,11.85
2023-05-13T09:27:58.781Z,11.07
2023-05-13T09:30:28.579Z,12.25
2023-05-13T09:33:11.253Z,8.80
2023-05-13T09:35:42.398Z,9.35
2023-05-13T09:38:15.635Z,16.05
2023-05-13T09:40:51.477Z,9.43
2023-05-13T09:43:21.074Z,10.70
2023-05-13T09:45:53.473Z,11.63
2023-05-13T09:48:22.896Z,10.27
2023-05-13T09:50:53.557Z,11.85
2023-05-13T09:53:22.046Z,12.02
2023-05-13T09:55:52.118Z,13.35
2023-05-13T09:58:22.005Z,9.35
2023-05-13T10:00:50.600Z,10.95
2023-05-13T10:03:19.079Z,10.00
2023-05-13T10:05:48.482Z,9.60
2023-05-13T10:08:19.229Z,14.73
2023-05-13T10:10:50.776Z,10.50
2023-05-13T10:13:21.858Z,15.07
2023-05-13T10:15:51.569Z,11.55
2023-05-13T10:18:22.571Z,11.23
2023-05-13T10:20:53.685Z,10.73
2023-05-13T10:23:24.887Z,10.07
2023-05-13T10:25:55.806Z,11.65
2023-05-13T10:28:26.446Z,9.55
2023-05-13T10:30:55.007Z,9.35
2023-05-13T10:33:23.647Z,12.77
2023-05-13T10:36:05.213Z,11.95
2023-05-13T10:38:48.323Z,8.65
2023-05-13T10:41:36.322Z,9.18
2023-05-13T10:44:04.976Z,13.38
2023-05-13T10:46:35.601Z,12.93
2023-05-13T10:49:04.023Z,8.68
2023-05-13T10:51:32.920Z,12.68
2023-05-13T10:54:02.666Z,13.02
2023-05-13T10:56:31.005Z,13.02
2023-05-13T10:59:01.357Z,12.02
2023-05-13T11:01:31.411Z,8.00
2023-05-13T11:04:03.334Z,11.45
2023-05-13T11:06:36.792Z,10.37
2023-05-13T11:09:08.598Z,22.23
2023-05-13T11:11:37.524Z,10.85
2023-05-13T11:14:15.755Z,10.38
2023-05-13T11:16:48.865Z,7.75
2023-05-13T11:19:22.545Z,10.57
2023-05-13T11:21:53.581Z,12.57
2023-05-13T11:24:23.942Z,13.43
2023-05-13T11:26:54.252Z,8.48
2023-05-13T11:29:30.549Z,10.85
2023-05-13T11:32:00.797Z,11.35
2023-05-13T11:34:29.882Z,13.85
2023-05-13T11:37:07.016Z,9.75
2023-05-13T11:39:39.505Z,11.65
2023-05-13T11:42:09.005Z,11.35
2023-05-13T11:44:45.325Z,15.50
2023-05-13T11:47:13.962Z,23.92
2023-05-13T11:49:43.973Z,14.57
2023-05-13T11:52:14.124Z,12.35
2023-05-13T11:54:49.221Z,10.25
2023-05-13T11:57:22.272Z,9.45
2023-05-13T11:59:58.808Z,8.63
2023-05-13T12:02:29.866Z,12.57
2023-05-13T12:05:02.134Z,9.75
2023-05-13T12:07:30.658Z,16.33
2023-05-13T12:10:01.923Z,13.25
2023-05-13T12:12:31.992Z,14.02
2023-05-13T12:15:03.056Z,10.07
2023-05-13T12:17:34.073Z,8.35
2023-05-13T12:20:07.275Z,12.20
2023-05-13T12:22:36.704Z,11.57
2023-05-13T12:25:43.833Z,11.98
2023-05-13T12:28:16.469Z,9.80
2023-05-13T12:30:50.480Z,11.70
2023-05-13T12:33:20.927Z,11.93
2023-05-13T12:35:51.896Z,15.90
2023-05-13T12:38:21.979Z,11.35
2023-05-13T12:40:53.122Z,12.25
2023-05-13T12:43:21.688Z,11.45
2023-05-13T12:45:55.345Z,13.77
2023-05-13T12:50:56.454Z,9.95
2023-05-13T12:53:25.013Z,17.63
2023-05-13T12:55:54.858Z,11.98
2023-05-13T12:58:23.412Z,10.10
2023-05-13T13:00:51.859Z,11.80
2023-05-13T13:03:23.257Z,10.75
2023-05-13T13:05:53.097Z,13.93
2023-05-13T13:08:22.161Z,15.68
2023-05-13T13:10:50.801Z,13.50
2023-05-13T13:13:20.688Z,11.95
2023-05-13T13:15:49.182Z,12.85
2023-05-13T13:18:17.563Z,9.38
2023-05-13T13:20:46.039Z,11.60
2023-05-13T13:23:14.543Z,9.85
2023-05-13T13:25:42.960Z,10.18
2023-05-13T13:28:11.290Z,12.65
2023-05-13T13:30:46.308Z,14.52
2023-05-13T13:33:16.399Z,10.45
2023-05-13T13:35:45.575Z,10.57
2023-05-13T13:38:14.020Z,13.43
2023-05-13T13:40:42.472Z,14.65
2023-05-13T13:43:10.960Z,9.85
2023-05-13T13:45:40.413Z,12.32
2023-05-13T13:48:10.192Z,14.32
2023-05-13T13:50:38.699Z,11.13
2023-05-13T13:53:07.220Z,10.43
2023-05-13T13:55:35.773Z,11.15
2023-05-13T13:58:04.144Z,33.17
2023-05-13T14:00:32.580Z,15.15
2023-05-13T14:03:02.650Z,12.98
2023-05-13T14:05:32.556Z,16.10
2023-05-13T14:08:00.911Z,11.68
2023-05-13T14:10:29.277Z,17.75
2023-05-13T14:12:57.693Z,10.70
2023-05-13T14:15:28.765Z,12.55
2023-05-13T14:17:58.248Z,13.68
2023-05-13T14:20:29.036Z,13.07
2023-05-13T14:22:59.360Z,15.75
2023-05-13T14:25:27.999Z,19.42
2023-05-13T14:27:56.620Z,18.23
2023-05-13T14:30:27.548Z,12.57
2023-05-13T14:32:56.192Z,9.68
2023-05-13T14:35:25.305Z,11.88
2023-05-13T14:37:53.681Z,9.63
2023-05-13T14:40:25.912Z,11.02
2023-05-13T14:42:54.480Z,14.15
2023-05-13T14:45:22.945Z,12.15
2023-05-13T14:47:53.926Z,9.55
2023-05-13T14:50:22.939Z,11.32
2023-05-13T14:52:51.699Z,11.95
2023-05-13T14:55:20.190Z,13.10
2023-05-13T14:57:50.090Z,11.82
2023-05-13T15:00:19.510Z,10.20
2023-05-13T15:02:48.717Z,16.45
2023-05-13T15:05:17.443Z,11.32
2023-05-13T15:07:45.893Z,16.17
2023-05-13T15:10:14.452Z,16.27
2023-05-13T15:12:42.821Z,14.18
2023-05-13T15:15:13.208Z,11.75
2023-05-13T15:17:41.773Z,12.27
2023-05-13T15:20:11.276Z,11.02
2023-05-13T15:22:39.638Z,11.88
2023-05-13T15:25:08.799Z,10.55
2023-05-13T15:27:37.244Z,12.30
2023-05-13T15:30:06.610Z,11.70
2023-05-13T15:32:36.454Z,11.52
2023-05-13T15:35:05.497Z,12.43
2023-05-13T15:37:33.930Z,12.98
2023-05-13T15:40:02.601Z,24.83
2023-05-13T15:42:31.020Z,11.82
2023-05-13T15:44:59.726Z,10.48
2023-05-13T15:47:28.319Z,10.45
2023-05-13T15:49:58.395Z,11.90
2023-05-13T15:52:27.118Z,12.95
2023-05-13T15:54:55.478Z,12.23
2023-05-13T15:57:24.080Z,15.55
2023-05-13T15:59:52.618Z,13.32
2023-05-13T16:02:21.147Z,12.73
2023-05-13T16:04:51.117Z,14.13
2023-05-13T16:07:21.188Z,16.02
2023-05-13T16:09:50.037Z,16.25
2023-05-13T16:12:18.402Z,14.68
2023-05-13T16:14:46.748Z,19.63
2023-05-13T16:17:15.522Z,13.93
2023-05-13T16:19:44.115Z,14.02
2023-05-13T16:22:32.570Z,13.07
2023-05-13T16:25:02.742Z,13.32
2023-05-13T16:27:31.546Z,15.80
2023-05-13T16:30:01.806Z,13.65
2023-05-13T16:32:30.793Z,14.40
2023-05-13T16:35:01.322Z,15.57
2023-05-13T16:37:34.558Z,13.70
2023-05-13T16:40:03.222Z,18.93
2023-05-13T16:42:31.634Z,9.48
2023-05-13T16:45:00.055Z,13.90
2023-05-13T16:47:28.415Z,10.35
2023-05-13T16:49:57.037Z,13.10
2023-05-13T16:52:25.413Z,14.50
2023-05-13T16:54:57.812Z,13.55
2023-05-13T16:57:27.400Z,13.98
2023-05-13T16:59:55.854Z,11.90
2023-05-13T17:02:24.591Z,11.32
2023-05-13T17:04:53.179Z,16.05
2023-05-13T17:07:21.552Z,14.48
2023-05-13T17:09:50.004Z,15.23
2023-05-13T17:12:19.656Z,22.15
2023-05-13T17:14:48.013Z,27.52
2023-05-13T17:17:16.437Z,11.30
2023-05-13T17:19:44.776Z,16.15
2023-05-13T17:22:13.189Z,16.70
2023-05-13T17:24:41.636Z,12.00
2023-05-13T17:27:10.068Z,10.70
2023-05-13T17:29:39.872Z,16.27
2023-05-13T17:32:08.868Z,10.93
2023-05-13T17:34:37.316Z,14.45
2023-05-13T17:37:06.101Z,11.82
2023-05-13T17:39:34.488Z,15.43
2023-05-13T17:42:02.907Z,17.60
2023-05-13T17:44:31.256Z,13.98
2023-05-13T17:47:01.073Z,10.70
2023-05-13T17:49:29.416Z,11.95
2023-05-13T17:51:57.892Z,15.27
2023-05-13T17:54:26.263Z,19.38
2023-05-13T17:56:54.736Z,17.88
2023-05-13T17:59:23.155Z,15.00
2023-05-13T18:01:51.606Z,19.88
2023-05-13T18:04:21.729Z,10.50
2023-05-13T18:06:50.114Z,14.10
2023-05-13T18:09:18.488Z,20.42
2023-05-13T18:11:46.865Z,18.05
2023-05-13T18:14:15.593Z,13.30
2023-05-13T18:16:44.089Z,14.73
2023-05-13T18:19:12.663Z,12.07
2023-05-13T18:21:42.522Z,13.25
2023-05-13T18:24:11.038Z,16.77
2023-05-13T18:26:39.342Z,25.42
2023-05-13T18:29:07.724Z,38.90
2023-05-13T18:31:36.140Z,24.35
2023-05-13T18:34:04.615Z,19.98
2023-05-13T18:36:32.968Z,16.48
2023-05-13T18:39:02.748Z,13.75
2023-05-13T18:41:31.309Z,16.30
2023-05-13T18:43:59.632Z,35.53
2023-05-13T18:46:28.135Z,39.08
2023-05-13T18:48:56.713Z,18.35
2023-05-13T18:51:25.057Z,14.90
2023-05-13T18:53:53.440Z,17.95
2023-05-13T18:56:23.139Z,14.07
2023-05-13T18:58:51.461Z,18.52
2023-05-13T19:01:19.998Z,17.65
2023-05-13T19:03:48.808Z,17.38
2023-05-13T19:06:17.430Z,15.30
2023-05-13T19:08:46.097Z,16.40
2023-05-13T19:11:14.530Z,18.33
2023-05-13T19:13:47.507Z,14.27
2023-05-13T19:16:16.441Z,16.67
2023-05-13T19:18:44.927Z,12.55
2023-05-13T19:21:13.301Z,11.55
2023-05-13T19:23:41.824Z,14.30
2023-05-13T19:26:10.360Z,16.58
2023-05-13T19:28:39.475Z,16.38
2023-05-13T19:31:09.208Z,17.58
2023-05-13T19:33:37.995Z,18.20
2023-05-13T19:36:06.952Z,16.23
2023-05-13T19:38:36.497Z,19.27
2023-05-13T19:41:04.838Z,17.15
2023-05-13T19:43:33.226Z,16.42
2023-05-13T19:46:01.532Z,15.98
2023-05-13T19:48:31.342Z,17.00
2023-05-13T19:50:59.902Z,16.05
2023-05-13T19:53:28.310Z,18.05
2023-05-13T19:55:56.714Z,18.42
2023-05-13T19:58:25.177Z,15.90
2023-05-13T20:00:53.601Z,13.38
2023-05-13T20:03:22.194Z,15.23
2023-05-13T20:05:53.009Z,15.18
2023-05-13T20:08:21.743Z,14.70
2023-05-13T20:10:50.065Z,17.98
2023-05-13T20:13:18.523Z,16.48
2023-05-13T20:15:46.848Z,16.67
2023-05-13T20:18:15.387Z,15.88
2023-05-13T20:20:44.982Z,18.73
2023-05-13T20:23:14.779Z,16.85
2023-05-13T20:25:43.143Z,17.55
2023-05-13T20:28:11.546Z,20.38
2023-05-13T20:30:41.628Z,20.13
2023-05-13T20:33:10.112Z,18.73
2023-05-13T20:35:38.653Z,16.63
2023-05-13T20:38:06.988Z,17.58
2023-05-13T20:40:36.739Z,16.35
2023-05-13T20:43:07.553Z,18.38
2023-05-13T20:45:39.099Z,20.60
2023-05-13T20:48:08.084Z,23.05
2023-05-13T20:50:37.296Z,18.35
2023-05-13T20:53:05.639Z,19.73
2023-05-13T20:55:34.060Z,19.88
2023-05-13T20:58:03.747Z,17.05
2023-05-13T21:00:32.370Z,26.90
2023-05-13T21:03:00.971Z,20.85
2023-05-13T21:05:29.420Z,19.02
2023-05-13T21:07:57.792Z,22.83
2023-05-13T21:10:26.269Z,26.98
2023-05-13T21:12:54.734Z,19.27
2023-05-13T21:15:24.382Z,17.20
2023-05-13T21:17:52.799Z,17.23
2023-05-13T21:20:21.941Z,19.40
2023-05-13T21:22:50.615Z,23.67
2023-05-13T21:25:19.379Z,22.60
2023-05-13T21:27:49.331Z,27.17
2023-05-13T21:30:17.883Z,25.27
2023-05-13T21:32:47.837Z,23.52
2023-05-13T21:35:16.648Z,25.42
2023-05-13T21:37:47.192Z,23.30
2023-05-13T21:40:16.182Z,25.65
2023-05-13T21:42:44.766Z,23.00
2023-05-13T21:45:14.972Z,31.10
2023-05-13T21:47:43.542Z,27.17
2023-05-13T21:50:13.363Z,29.55
2023-05-13T21:52:41.764Z,31.83
2023-05-13T21:55:11.227Z,31.08
2023-05-13T21:57:39.596Z,32.30
2023-05-13T22:00:10.800Z,28.30
2023-05-13T22:02:39.225Z,26.08
2023-05-13T22:05:08.287Z,25.88
2023-05-13T22:07:38.019Z,25.60
2023-05-13T22:10:07.561Z,21.88
2023-05-13T22:12:35.911Z,26.80
2023-05-13T22:15:04.590Z,18.48
2023-05-13T22:17:33.045Z,22.83
2023-05-13T22:20:01.573Z,20.20
2023-05-13T22:22:30.026Z,25.05
2023-05-13T22:24:59.822Z,23.05
2023-05-13T22:27:28.138Z,23.80
2023-05-13T22:29:56.794Z,21.17
2023-05-13T22:32:25.553Z,22.73
2023-05-13T22:34:53.915Z,22.58
2023-05-13T22:37:22.246Z,22.73
2023-05-13T22:39:50.998Z,19.30
2023-05-13T22:42:21.234Z,19.60
2023-05-13T22:44:49.632Z,19.27
2023-05-13T22:47:18.000Z,20.25
2023-05-13T22:49:46.581Z,19.90
2023-05-13T22:52:14.938Z,23.00
2023-05-13T22:54:43.299Z,21.15
2023-05-13T22:57:11.646Z,20.52
2023-05-13T22:59:41.326Z,21.42
2023-05-13T23:02:09.770Z,20.50
2023-05-13T23:04:38.802Z,19.52
2023-05-13T23:07:07.160Z,22.05
2023-05-13T23:09:35.510Z,23.23
2023-05-13T23:12:03.850Z,19.50
2023-05-13T23:14:32.148Z,18.25
2023-05-13T23:17:02.054Z,20.15
2023-05-13T23:19:30.619Z,17.35
2023-05-13T23:21:58.957Z,18.67
2023-05-13T23:24:27.273Z,17.42
2023-05-13T23:26:56.113Z,16.88
2023-05-13T23:29:27.376Z,17.40
2023-05-13T23:31:56.078Z,18.02
2023-05-13T23:34:25.862Z,18.38
2023-05-13T23:36:54.181Z,17.05
2023-05-13T23:39:22.531Z,14.82
2023-05-13T23:41:50.855Z,15.63
2023-05-13T23:44:19.157Z,16.83
2023-05-13T23:46:47.590Z,15.82
2023-05-13T23:49:16.447Z,13.90
2023-05-13T23:51:46.149Z,17.92
2023-05-13T23:54:14.527Z,17.23
2023-05-13T23:56:43.119Z,15.07
2023-05-13T23:59:11.654Z,18.55
